sensor_id;sensor_type;location;lat;lon;timestamp;pressure;altitude;pressure_sealevel;temperature
13570;BMP180;6856;51.460;7.158;2022-08-01T00:00:46;100468.00;;;24.10
13570;BMP180;6856;51.460;7.158;2022-08-01T00:03:20;100472.00;;;24.20
13570;BMP180;6856;51.460;7.158;2022-08-01T00:05:53;100476.00;;;24.20
13570;BMP180;6856;51.460;7.158;2022-08-01T00:08:27;100473.00;;;24.20
13570;BMP180;6856;51.460;7.158;2022-08-01T00:11:01;100476.00;;;24.20
13570;BMP180;6856;51.460;7.158;2022-08-01T00:13:35;100471.00;;;24.20
13570;BMP180;6856;51.460;7.158;2022-08-01T00:16:10;100474.00;;;24.20
13570;BMP180;6856;51.460;7.158;2022-08-01T00:18:44;100460.00;;;24.10
13570;BMP180;6856;51.460;7.158;2022-08-01T00:21:18;100472.00;;;24.10
13570;BMP180;6856;51.460;7.158;2022-08-01T00:23:51;100470.00;;;24.10
13570;BMP180;6856;51.460;7.158;2022-08-01T00:26:25;100471.00;;;24.10
13570;BMP180;6856;51.460;7.158;2022-08-01T00:28:58;100475.00;;;24.10
13570;BMP180;6856;51.460;7.158;2022-08-01T00:31:33;100476.00;;;24.10
13570;BMP180;6856;51.460;7.158;2022-08-01T00:34:07;100465.00;;;24.10
13570;BMP180;6856;51.460;7.158;2022-08-01T00:36:40;100475.00;;;24.10
13570;BMP180;6856;51.460;7.158;2022-08-01T00:39:14;100478.00;;;24.10
13570;BMP180;6856;51.460;7.158;2022-08-01T00:41:48;100473.00;;;24.10
13570;BMP180;6856;51.460;7.158;2022-08-01T00:44:30;100476.00;;;24.10
13570;BMP180;6856;51.460;7.158;2022-08-01T00:47:08;100477.00;;;24.00
13570;BMP180;6856;51.460;7.158;2022-08-01T00:49:43;100467.00;;;24.00
13570;BMP180;6856;51.460;7.158;2022-08-01T00:52:17;100475.00;;;24.00
13570;BMP180;6856;51.460;7.158;2022-08-01T00:54:51;100471.00;;;24.00
13570;BMP180;6856;51.460;7.158;2022-08-01T00:57:25;100467.00;;;24.00
13570;BMP180;6856;51.460;7.158;2022-08-01T01:00:19;100474.00;;;24.00
13570;BMP180;6856;51.460;7.158;2022-08-01T01:03:00;100465.00;;;24.00
13570;BMP180;6856;51.460;7.158;2022-08-01T01:08:41;100463.00;;;24.00
13570;BMP180;6856;51.460;7.158;2022-08-01T01:11:25;100462.00;;;24.00
13570;BMP180;6856;51.460;7.158;2022-08-01T01:14:10;100462.00;;;24.00
13570;BMP180;6856;51.460;7.158;2022-08-01T01:16:51;100468.00;;;24.00
13570;BMP180;6856;51.460;7.158;2022-08-01T01:19:30;100455.00;;;24.00
13570;BMP180;6856;51.460;7.158;2022-08-01T01:22:27;100465.00;;;23.90
13570;BMP180;6856;51.460;7.158;2022-08-01T01:25:29;100469.00;;;24.00
13570;BMP180;6856;51.460;7.158;2022-08-01T01:28:15;100464.00;;;24.00
13570;BMP180;6856;51.460;7.158;2022-08-01T01:30:55;100458.00;;;23.90
13570;BMP180;6856;51.460;7.158;2022-08-01T01:33:36;100460.00;;;24.00
13570;BMP180;6856;51.460;7.158;2022-08-01T01:36:21;100465.00;;;24.00
13570;BMP180;6856;51.460;7.158;2022-08-01T13:52:43;100676.00;;;29.80
13570;BMP180;6856;51.460;7.158;2022-08-01T13:55:21;100669.00;;;29.90
13570;BMP180;6856;51.460;7.158;2022-08-01T13:58:00;100665.00;;;29.90
13570;BMP180;6856;51.460;7.158;2022-08-01T14:00:34;100668.00;;;29.90
13570;BMP180;6856;51.460;7.158;2022-08-01T14:03:08;100671.00;;;29.90
13570;BMP180;6856;51.460;7.158;2022-08-01T14:05:43;100672.00;;;29.90
13570;BMP180;6856;51.460;7.158;2022-08-01T14:08:19;100664.00;;;29.90
13570;BMP180;6856;51.460;7.158;2022-08-01T14:10:57;100655.00;;;30.00
13570;BMP180;6856;51.460;7.158;2022-08-01T14:13:33;100660.00;;;30.00
13570;BMP180;6856;51.460;7.158;2022-08-01T14:16:16;100664.00;;;30.10
13570;BMP180;6856;51.460;7.158;2022-08-01T14:18:52;100662.00;;;30.10
13570;BMP180;6856;51.460;7.158;2022-08-01T14:21:26;100672.00;;;30.10
13570;BMP180;6856;51.460;7.158;2022-08-01T14:24:02;100668.00;;;30.10
13570;BMP180;6856;51.460;7.158;2022-08-01T14:26:36;100662.00;;;30.10
13570;BMP180;6856;51.460;7.158;2022-08-01T14:29:10;100662.00;;;30.10
13570;BMP180;6856;51.460;7.158;2022-08-01T14:31:44;100661.00;;;30.10
13570;BMP180;6856;51.460;7.158;2022-08-01T14:34:18;100655.00;;;30.10
13570;BMP180;6856;51.460;7.158;2022-08-01T14:36:53;100656.00;;;30.10
13570;BMP180;6856;51.460;7.158;2022-08-01T14:39:30;100666.00;;;30.00
13570;BMP180;6856;51.460;7.158;2022-08-01T14:42:06;100670.00;;;30.00
13570;BMP180;6856;51.460;7.158;2022-08-01T14:44:41;100666.00;;;30.00
13570;BMP180;6856;51.460;7.158;2022-08-01T14:47:21;100672.00;;;30.00
13570;BMP180;6856;51.460;7.158;2022-08-01T14:49:55;100650.00;;;30.00
13570;BMP180;6856;51.460;7.158;2022-08-01T14:52:32;100663.00;;;30.00
13570;BMP180;6856;51.460;7.158;2022-08-01T14:55:09;100666.00;;;30.00
13570;BMP180;6856;51.460;7.158;2022-08-01T14:57:45;100658.00;;;30.00
13570;BMP180;6856;51.460;7.158;2022-08-01T15:00:19;100670.00;;;30.00
13570;BMP180;6856;51.460;7.158;2022-08-01T15:02:54;100672.00;;;30.00
13570;BMP180;6856;51.460;7.158;2022-08-01T15:05:29;100664.00;;;29.90
13570;BMP180;6856;51.460;7.158;2022-08-01T15:08:06;100653.00;;;29.90
13570;BMP180;6856;51.460;7.158;2022-08-01T15:10:42;100686.00;;;29.90
13570;BMP180;6856;51.460;7.158;2022-08-01T15:13:16;100665.00;;;29.90
13570;BMP180;6856;51.460;7.158;2022-08-01T15:15:50;100662.00;;;29.90
13570;BMP180;6856;51.460;7.158;2022-08-01T15:18:26;100667.00;;;29.90
13570;BMP180;6856;51.460;7.158;2022-08-01T15:21:02;100661.00;;;29.90
13570;BMP180;6856;51.460;7.158;2022-08-01T15:23:36;100675.00;;;29.90
13570;BMP180;6856;51.460;7.158;2022-08-01T15:26:13;100661.00;;;29.90
13570;BMP180;6856;51.460;7.158;2022-08-01T15:28:47;100668.00;;;29.80
13570;BMP180;6856;51.460;7.158;2022-08-01T15:31:21;100675.00;;;29.80
13570;BMP180;6856;51.460;7.158;2022-08-01T15:33:59;100677.00;;;29.80
13570;BMP180;6856;51.460;7.158;2022-08-01T15:36:35;100673.00;;;29.80
13570;BMP180;6856;51.460;7.158;2022-08-01T15:39:13;100680.00;;;29.80
13570;BMP180;6856;51.460;7.158;2022-08-01T15:41:53;100691.00;;;29.80
13570;BMP180;6856;51.460;7.158;2022-08-01T15:44:28;100675.00;;;29.80
13570;BMP180;6856;51.460;7.158;2022-08-01T15:47:03;100670.00;;;29.70
13570;BMP180;6856;51.460;7.158;2022-08-01T15:49:39;100678.00;;;29.70
13570;BMP180;6856;51.460;7.158;2022-08-01T15:52:14;100666.00;;;29.70
13570;BMP180;6856;51.460;7.158;2022-08-01T15:54:54;100674.00;;;29.70
13570;BMP180;6856;51.460;7.158;2022-08-01T15:57:29;100678.00;;;29.70
13570;BMP180;6856;51.460;7.158;2022-08-01T16:00:05;100667.00;;;29.70
13570;BMP180;6856;51.460;7.158;2022-08-01T16:02:41;100680.00;;;29.70
13570;BMP180;6856;51.460;7.158;2022-08-01T16:05:16;100676.00;;;29.70
13570;BMP180;6856;51.460;7.158;2022-08-01T16:07:52;100679.00;;;29.70
13570;BMP180;6856;51.460;7.158;2022-08-01T16:10:33;100678.00;;;29.70
13570;BMP180;6856;51.460;7.158;2022-08-01T16:13:08;100664.00;;;29.60
13570;BMP180;6856;51.460;7.158;2022-08-01T16:15:43;100681.00;;;29.60
13570;BMP180;6856;51.460;7.158;2022-08-01T16:18:18;100668.00;;;29.60
13570;BMP180;6856;51.460;7.158;2022-08-01T16:20:53;100672.00;;;29.60
13570;BMP180;6856;51.460;7.158;2022-08-01T16:23:28;100676.00;;;29.60
13570;BMP180;6856;51.460;7.158;2022-08-01T16:26:03;100679.00;;;29.60
13570;BMP180;6856;51.460;7.158;2022-08-01T16:28:58;100680.00;;;29.60
13570;BMP180;6856;51.460;7.158;2022-08-01T16:31:33;100678.00;;;29.60
13570;BMP180;6856;51.460;7.158;2022-08-01T16:34:28;100679.00;;;29.50
13570;BMP180;6856;51.460;7.158;2022-08-01T16:37:03;100683.00;;;29.60
13570;BMP180;6856;51.460;7.158;2022-08-01T16:39:38;100666.00;;;29.50
13570;BMP180;6856;51.460;7.158;2022-08-01T16:42:14;100664.00;;;29.50
13570;BMP180;6856;51.460;7.158;2022-08-01T16:44:49;100678.00;;;29.50
13570;BMP180;6856;51.460;7.158;2022-08-01T16:47:24;100669.00;;;29.50
13570;BMP180;6856;51.460;7.158;2022-08-01T16:49:58;100664.00;;;29.50
13570;BMP180;6856;51.460;7.158;2022-08-01T16:52:34;100685.00;;;29.50
13570;BMP180;6856;51.460;7.158;2022-08-01T16:55:13;100674.00;;;29.50
13570;BMP180;6856;51.460;7.158;2022-08-01T16:57:48;100674.00;;;29.40
13570;BMP180;6856;51.460;7.158;2022-08-01T17:00:24;100683.00;;;29.50
13570;BMP180;6856;51.460;7.158;2022-08-01T17:02:59;100673.00;;;29.50
13570;BMP180;6856;51.460;7.158;2022-08-01T17:05:49;100686.00;;;29.50
13570;BMP180;6856;51.460;7.158;2022-08-01T17:08:23;100693.00;;;29.50
13570;BMP180;6856;51.460;7.158;2022-08-01T17:10:58;100685.00;;;29.50
13570;BMP180;6856;51.460;7.158;2022-08-01T17:13:37;100675.00;;;29.40
13570;BMP180;6856;51.460;7.158;2022-08-01T17:16:13;100677.00;;;29.40
13570;BMP180;6856;51.460;7.158;2022-08-01T17:18:47;100686.00;;;29.40
13570;BMP180;6856;51.460;7.158;2022-08-01T17:21:21;100684.00;;;29.40
13570;BMP180;6856;51.460;7.158;2022-08-01T17:23:55;100687.00;;;29.40
13570;BMP180;6856;51.460;7.158;2022-08-01T17:26:29;100688.00;;;29.40
13570;BMP180;6856;51.460;7.158;2022-08-01T17:29:03;100691.00;;;29.40
13570;BMP180;6856;51.460;7.158;2022-08-01T17:31:39;100682.00;;;29.40
13570;BMP180;6856;51.460;7.158;2022-08-01T17:34:13;100684.00;;;29.40
13570;BMP180;6856;51.460;7.158;2022-08-01T17:36:48;100691.00;;;29.30
13570;BMP180;6856;51.460;7.158;2022-08-01T17:39:22;100685.00;;;29.30
13570;BMP180;6856;51.460;7.158;2022-08-01T17:42:11;100692.00;;;29.20
13570;BMP180;6856;51.460;7.158;2022-08-01T17:44:45;100687.00;;;29.20
13570;BMP180;6856;51.460;7.158;2022-08-01T17:47:24;100687.00;;;29.20
13570;BMP180;6856;51.460;7.158;2022-08-01T17:50:18;100683.00;;;29.10
13570;BMP180;6856;51.460;7.158;2022-08-01T17:52:52;100673.00;;;29.10
13570;BMP180;6856;51.460;7.158;2022-08-01T17:55:26;100685.00;;;29.10
13570;BMP180;6856;51.460;7.158;2022-08-01T17:58:21;100690.00;;;29.00
13570;BMP180;6856;51.460;7.158;2022-08-01T18:01:16;100681.00;;;29.00
